Time;durP1;ratioP1;P1;durP2;ratioP2;P2;SDS_P1;SDS_P2;PMS_P1;PMS_P2;Temp;Humidity;BMP_temperature;BMP_pressure;BME280_temperature;BME280_humidity;BME280_pressure;Samples;Min_cycle;Max_cycle;Signal;HPM_P1;HPM_P2
2021/09/23 00:01:12;;;;;;;6.58;4.40;;;;;;;8.44;80.55;100377.02;1730943;81;20992;-68
2021/09/23 00:03:56;;;;;;;6.03;4.10;;;;;;;8.48;80.65;100387.97;1729602;81;21655;-68
2021/09/23 00:06:21;;;;;;;5.92;4.55;;;;;;;8.50;80.70;100380.56;1729163;81;21104;-67
2021/09/23 00:08:52;;;;;;;6.25;4.20;;;;;;;8.50;80.68;100382.42;1728046;81;21035;-68
2021/09/23 00:11:19;;;;;;;5.53;4.33;;;;;;;8.48;80.71;100381.32;1761504;80;21090;-67
2021/09/23 00:13:54;;;;;;;7.35;4.72;;;;;;;8.50;80.80;100391.73;1729500;81;21019;-67
2021/09/23 00:16:34;;;;;;;6.60;4.58;;;;;;;8.50;80.83;100390.41;1726585;81;20998;-67
2021/09/23 00:19:08;;;;;;;6.95;4.70;;;;;;;8.45;80.94;100390.59;1730696;81;21065;-67
2021/09/23 00:21:45;;;;;;;6.83;4.75;;;;;;;8.45;81.01;100388.46;1734042;81;21635;-67
2021/09/23 00:24:26;;;;;;;7.17;4.70;;;;;;;8.42;81.12;100387.62;1703274;81;21804;-68
2021/09/23 00:27:03;;;;;;;8.85;5.20;;;;;;;8.36;81.12;100389.94;1700453;83;21790;-68
2021/09/23 00:29:32;;;;;;;7.97;5.28;;;;;;;8.28;81.29;100384.49;1726216;81;21101;-68
2021/09/23 00:32:08;;;;;;;6.28;4.92;;;;;;;8.20;81.44;100385.73;1715918;82;21058;-68
2021/09/23 00:34:38;;;;;;;6.62;5.12;;;;;;;8.16;81.75;100379.30;1741702;82;21029;-68
2021/09/23 00:37:18;;;;;;;6.85;4.72;;;;;;;8.17;82.02;100382.22;1740819;82;21007;-68
2021/09/23 00:39:46;;;;;;;7.83;4.95;;;;;;;8.17;82.07;100381.42;1740731;82;21006;-67
2021/09/23 00:42:19;;;;;;;6.22;4.90;;;;;;;8.10;82.22;100381.59;1740671;82;21143;-67
2021/09/23 00:44:57;;;;;;;5.85;4.83;;;;;;;8.11;82.37;100381.07;1740499;81;20995;-67
2021/09/23 00:47:27;;;;;;;7.28;5.60;;;;;;;8.13;82.58;100378.98;1729404;81;21042;-67
2021/09/23 00:50:03;;;;;;;7.55;5.60;;;;;;;8.14;82.77;100378.72;1741811;81;21049;-67
2021/09/23 00:52:36;;;;;;;7.78;5.85;;;;;;;8.16;82.92;100384.61;1739856;82;21034;-67
2021/09/23 00:55:12;;;;;;;7.12;5.40;;;;;;;8.17;82.94;100385.41;1714949;82;21147;-67
2021/09/23 00:57:46;;;;;;;6.42;5.25;;;;;;;8.15;83.08;100378.99;1737612;81;21065;-68
2021/09/23 01:00:25;;;;;;;7.00;5.55;;;;;;;8.14;83.15;100383.24;1739462;82;21093;-66
2021/09/23 01:03:06;;;;;;;7.75;5.10;;;;;;;8.12;83.39;100387.46;1740550;81;21104;-67
2021/09/23 01:05:39;;;;;;;7.83;5.80;;;;;;;8.11;83.41;100385.05;1741043;82;20991;-67
2021/09/23 01:08:14;;;;;;;8.53;5.80;;;;;;;8.07;83.49;100383.95;1742614;82;21100;-67
2021/09/23 01:10:47;;;;;;;8.50;5.75;;;;;;;8.07;83.60;100386.07;1716102;82;21168;-67
2021/09/23 01:13:28;;;;;;;7.87;5.72;;;;;;;8.07;83.67;100381.28;1709836;82;21010;-69
2021/09/23 01:16:12;;;;;;;8.33;5.45;;;;;;;8.06;83.65;100387.13;1729057;81;21053;-67
2021/09/23 01:19:02;;;;;;;8.70;5.75;;;;;;;8.08;83.77;100385.55;1730264;82;21155;-67
2021/09/23 01:21:43;;;;;;;7.22;5.58;;;;;;;8.09;83.89;100385.81;1715958;82;21065;-67
2021/09/23 01:24:31;;;;;;;7.33;5.47;;;;;;;8.10;83.96;100387.45;1740808;82;21042;-67
2021/09/23 01:27:26;;;;;;;8.05;5.42;;;;;;;8.11;83.97;100388.52;1725560;81;21077;-67
2021/09/23 01:30:18;;;;;;;6.30;4.72;;;;;;;8.10;84.00;100382.92;1773408;81;21607;-68
2021/09/23 01:33:00;;;;;;;7.12;5.58;;;;;;;8.12;84.15;100390.13;1771816;81;21081;-68
2021/09/23 01:35:34;;;;;;;6.35;5.10;;;;;;;8.13;84.21;100390.42;1743500;81;21171;-68
2021/09/23 01:38:19;;;;;;;9.35;5.65;;;;;;;8.12;84.05;100389.31;1717037;82;20950;-67
2021/09/23 01:40:50;;;;;;;7.30;5.42;;;;;;;8.09;83.98;100383.95;1740781;82;21018;-68
2021/09/23 01:43:24;;;;;;;7.30;5.53;;;;;;;8.11;83.97;100383.73;1713886;82;21674;-67
2021/09/23 01:45:56;;;;;;;6.95;5.20;;;;;;;8.10;84.02;100380.80;1740861;82;21033;-67
2021/09/23 01:48:25;;;;;;;7.85;5.67;;;;;;;8.07;84.04;100377.30;1730274;82;21160;-67
2021/09/23 01:50:55;;;;;;;6.95;5.33;;;;;;;8.06;84.16;100377.83;1741941;82;21199;-67
2021/09/23 01:53:25;;;;;;;7.60;5.53;;;;;;;8.09;84.11;100379.97;1740798;82;21018;-67
2021/09/23 01:55:57;;;;;;;7.42;5.12;;;;;;;8.08;83.97;100381.55;1746352;81;28317;-67
2021/09/23 01:58:32;;;;;;;7.33;5.62;;;;;;;8.03;83.85;100376.98;1741616;81;20959;-67
2021/09/23 02:01:14;;;;;;;8.60;5.93;;;;;;;8.02;83.93;100379.34;1740369;81;20933;-67
2021/09/23 02:03:53;;;;;;;8.03;6.05;;;;;;;8.06;84.07;100383.64;1741264;82;21599;-68
2021/09/23 02:06:34;;;;;;;6.65;5.15;;;;;;;8.03;84.18;100387.62;1682512;82;21053;-67
2021/09/23 02:09:17;;;;;;;6.45;5.40;;;;;;;8.04;84.26;100389.22;1735305;82;21564;-68
2021/09/23 02:12:00;;;;;;;6.08;5.10;;;;;;;8.04;84.32;100386.56;1741520;82;21195;-66
2021/09/23 02:14:43;;;;;;;6.45;4.95;;;;;;;8.07;84.35;100393.25;1735841;81;21197;-67
2021/09/23 02:17:28;;;;;;;6.78;4.72;;;;;;;8.06;84.33;100386.30;1741749;82;21190;-68
2021/09/23 02:20:14;;;;;;;6.50;5.00;;;;;;;8.05;84.34;100385.50;1736790;82;21592;-68
2021/09/23 02:23:05;;;;;;;8.60;5.20;;;;;;;8.10;84.38;100396.76;1742130;82;21038;-68
2021/09/23 02:25:48;;;;;;;6.80;4.45;;;;;;;8.08;84.14;100385.02;1744095;81;21002;-68
2021/09/23 02:28:30;;;;;;;6.30;4.47;;;;;;;8.05;84.25;100388.16;1712757;82;21159;-68
2021/09/23 02:31:10;;;;;;;;;;;;;;;8.04;84.21;100386.56;1738458;82;21096;-69
2021/09/23 02:33:51;;;;;;;6.78;4.78;;;;;;;8.04;84.29;100381.23;1737482;82;20161;-68
2021/09/23 02:36:32;;;;;;;6.70;4.87;;;;;;;8.02;84.36;100380.66;1742395;82;21022;-68
2021/09/23 02:39:11;;;;;;;5.90;4.12;;;;;;;8.04;84.38;100386.56;1733995;81;21092;-67
2021/09/23 02:41:44;;;;;;;6.17;4.62;;;;;;;8.03;84.35;100382.30;1715984;82;21102;-67
2021/09/23 02:44:32;;;;;;;6.10;4.15;;;;;;;8.06;84.34;100379.65;1715740;82;20982;-67
2021/09/23 02:47:08;;;;;;;6.22;4.40;;;;;;;8.08;84.21;100381.55;1740350;82;20995;-66
2021/09/23 02:49:49;;;;;;;6.05;4.37;;;;;;;8.08;84.13;100385.02;1731050;82;21022;-67
2021/09/23 02:52:23;;;;;;;5.55;4.12;;;;;;;8.08;84.10;100382.36;1740689;82;21013;-68
2021/09/23 02:55:05;;;;;;;5.58;4.25;;;;;;;8.07;84.11;100371.97;1739837;81;21902;-68
2021/09/23 02:57:38;;;;;;;6.75;4.50;;;;;;;8.07;84.12;100371.97;1740237;82;21090;-67
2021/09/23 03:00:17;;;;;;;6.05;4.78;;;;;;;8.07;84.03;100367.45;1744861;81;21023;-67
2021/09/23 03:02:57;;;;;;;6.35;4.62;;;;;;;8.08;84.01;100369.58;1712997;83;21476;-67
2021/09/23 03:05:35;;;;;;;5.55;4.45;;;;;;;8.08;84.09;100374.38;1701617;82;20963;-67
2021/09/23 03:08:13;;;;;;;5.80;4.40;;;;;;;8.11;84.07;100372.56;1715017;82;21113;-67
2021/09/23 03:10:46;;;;;;;5.85;4.50;;;;;;;8.13;84.10;100371.80;1715928;82;21045;-67
2021/09/23 03:13:27;;;;;;;6.37;4.97;;;;;;;8.15;84.10;100372.87;1742075;81;21006;-67
2021/09/23 03:16:07;;;;;;;6.45;4.60;;;;;;;8.17;84.07;100370.25;1740773;82;21816;-67
2021/09/23 03:18:38;;;;;;;6.10;4.85;;;;;;;8.17;83.97;100374.77;1715848;81;21111;-67
2021/09/23 03:21:13;;;;;;;5.80;4.47;;;;;;;8.18;83.96;100369.19;1715005;82;21143;-67
2021/09/23 03:23:53;;;;;;;6.67;5.20;;;;;;;8.23;83.99;100370.60;1735083;82;21520;-68
2021/09/23 03:26:34;;;;;;;7.00;4.60;;;;;;;8.31;83.90;100373.89;1740096;82;21092;-67
2021/09/23 03:38:16;;;;;;;6.58;4.75;;;;;;;8.28;83.13;100374.38;1733716;81;21056;-68
2021/09/23 03:40:45;;;;;;;6.10;5.15;;;;;;;8.25;83.19;100379.66;1729380;82;21084;-68
2021/09/23 03:43:13;;;;;;;6.50;4.62;;;;;;;8.30;83.29;100381.60;1729006;81;21554;-67
2021/09/23 03:45:41;;;;;;;5.90;5.05;;;;;;;8.33;83.25;100375.79;1732475;81;21039;-69
2021/09/23 03:48:09;;;;;;;7.97;5.28;;;;;;;8.38;83.11;100377.20;1733133;82;21806;-67
2021/09/23 03:50:36;;;;;;;6.35;4.25;;;;;;;8.39;83.10;100381.46;1710489;82;21020;-68
2021/09/23 03:53:05;;;;;;;6.72;5.05;;;;;;;8.41;82.97;100378.04;1734303;82;21139;-68
2021/09/23 03:55:33;;;;;;;7.30;5.08;;;;;;;8.37;82.96;100382.22;1714701;82;21047;-67
2021/09/23 03:58:01;;;;;;;7.00;5.10;;;;;;;8.35;82.76;100381.65;1735618;81;21460;-68
2021/09/23 04:00:29;;;;;;;6.28;4.90;;;;;;;8.33;82.77;100377.92;1728399;82;21075;-69
2021/09/23 04:02:56;;;;;;;7.17;5.15;;;;;;;8.32;82.69;100376.29;1733752;81;21533;-68
2021/09/23 04:05:24;;;;;;;6.55;5.30;;;;;;;8.33;82.61;100383.77;1733988;81;21067;-68
2021/09/23 04:07:52;;;;;;;6.83;5.62;;;;;;;8.32;82.45;100382.94;1737829;81;21031;-67
2021/09/23 04:10:22;;;;;;;7.20;5.58;;;;;;;8.30;82.32;100378.94;1732722;82;21512;-67
2021/09/23 04:12:52;;;;;;;6.60;5.20;;;;;;;8.29;82.15;100386.63;1711618;82;21156;-68
2021/09/23 04:15:19;;;;;;;7.35;5.75;;;;;;;8.27;82.07;100382.09;1725348;82;21011;-67
2021/09/23 04:17:46;;;;;;;7.87;5.80;;;;;;;8.26;81.88;100387.11;1735325;82;21020;-67
2021/09/23 04:20:14;;;;;;;7.37;6.05;;;;;;;8.24;81.79;100387.38;1735421;81;21085;-68
2021/09/23 04:22:44;;;;;;;8.88;5.87;;;;;;;8.22;81.54;100388.93;1735307;81;21057;-69
2021/09/23 04:25:11;;;;;;;8.70;5.90;;;;;;;8.21;81.38;100389.19;1732902;82;21105;-67
2021/09/23 04:27:40;;;;;;;7.75;6.10;;;;;;;8.18;81.15;100390.48;1729141;82;21190;-67
2021/09/23 04:30:10;;;;;;;6.85;5.40;;;;;;;8.20;81.01;100386.26;1733977;81;21157;-67
2021/09/23 04:32:37;;;;;;;6.67;5.20;;;;;;;8.20;80.77;100386.26;1712090;82;21067;-67
2021/09/23 04:35:05;;;;;;;7.35;5.72;;;;;;;8.20;80.56;100386.26;1722709;82;21096;-67
2021/09/23 04:37:31;;;;;;;8.08;5.45;;;;;;;8.20;80.43;100391.05;1711327;81;21127;-68
2021/09/23 04:39:58;;;;;;;7.72;6.50;;;;;;;8.20;80.30;100388.92;1718313;81;21145;-67
2021/09/23 04:42:26;;;;;;;8.13;6.37;;;;;;;8.23;80.27;100387.90;1737360;81;21024;-68
2021/09/23 04:44:54;;;;;;;7.40;6.42;;;;;;;8.29;80.20;100387.45;1733081;81;22096;-68
2021/09/23 04:47:21;;;;;;;7.65;6.08;;;;;;;8.37;80.06;100383.55;1736094;82;21073;-68
2021/09/23 04:49:50;;;;;;;7.25;5.83;;;;;;;8.41;80.05;100388.16;1734894;81;21529;-68
2021/09/23 04:52:18;;;;;;;9.00;6.78;;;;;;;8.42;79.99;100384.47;1733480;81;21093;-69
2021/09/23 04:54:45;;;;;;;9.03;6.05;;;;;;;8.45;79.98;100391.92;1735491;82;21066;-69
2021/09/23 04:57:11;;;;;;;8.48;6.60;;;;;;;8.50;79.97;100385.08;1711739;82;21043;-68
2021/09/23 04:59:40;;;;;;;8.23;6.00;;;;;;;8.52;79.94;100381.62;1735726;81;21515;-67
2021/09/23 05:02:08;;;;;;;8.10;6.33;;;;;;;8.55;79.87;100377.94;1729123;81;21142;-67
2021/09/23 05:04:35;;;;;;;9.63;5.92;;;;;;;8.59;79.77;100380.94;1711672;82;21589;-67
2021/09/23 05:07:03;;;;;;;7.67;6.17;;;;;;;8.62;79.62;100384.41;1728412;81;20988;-68
2021/09/23 05:09:31;;;;;;;7.62;6.28;;;;;;;8.62;79.20;100385.74;1711733;82;21056;-69
2021/09/23 05:12:00;;;;;;;9.43;7.20;;;;;;;8.60;79.06;100382.54;1745009;81;21090;-69
2021/09/23 05:14:29;;;;;;;8.25;6.72;;;;;;;8.60;78.93;100382.54;1732409;81;21070;-68
2021/09/23 05:17:00;;;;;;;8.68;7.37;;;;;;;8.60;78.79;100389.20;1728968;81;21008;-67
2021/09/23 05:19:28;;;;;;;9.68;6.72;;;;;;;8.59;78.76;100382.27;1728112;81;21055;-69
2021/09/23 05:21:54;;;;;;;7.92;6.62;;;;;;;8.57;78.77;100383.03;1734849;81;21547;-67
2021/09/23 05:24:21;;;;;;;9.98;6.70;;;;;;;8.58;78.60;100382.77;1725932;82;21122;-68
2021/09/23 05:26:48;;;;;;;7.62;6.12;;;;;;;8.57;78.50;100386.50;1735669;81;21113;-68
2021/09/23 05:29:14;;;;;;;8.28;6.58;;;;;;;8.55;78.38;100387.26;1738447;81;21531;-68
2021/09/23 05:31:41;;;;;;;9.08;7.17;;;;;;;8.52;78.41;100382.42;1735573;82;20988;-69
2021/09/23 05:34:08;;;;;;;8.35;6.55;;;;;;;8.55;78.50;100386.46;1735124;81;21056;-67
2021/09/23 05:36:35;;;;;;;8.30;6.53;;;;;;;8.59;78.49;100389.73;1735431;82;21565;-67
2021/09/23 05:39:03;;;;;;;10.20;6.75;;;;;;;8.59;78.46;100388.92;1710885;82;21542;-67
2021/09/23 05:41:33;;;;;;;9.80;7.00;;;;;;;8.58;78.37;100393.95;1728940;81;21103;-67
2021/09/23 05:44:01;;;;;;;7.92;6.90;;;;;;;8.59;78.44;100392.92;1734512;82;21729;-69
2021/09/23 05:46:28;;;;;;;8.65;6.87;;;;;;;8.59;78.28;100390.26;1729805;81;20988;-68
2021/09/23 05:48:56;;;;;;;8.30;6.47;;;;;;;8.63;78.35;100391.37;1737070;81;21055;-67
2021/09/23 05:51:23;;;;;;;8.25;5.70;;;;;;;8.66;78.21;100391.67;1734008;81;21151;-69
2021/09/23 05:53:49;;;;;;;7.15;5.35;;;;;;;8.71;78.04;100394.91;1735494;81;21103;-69
2021/09/23 05:56:16;;;;;;;9.20;5.60;;;;;;;8.71;78.07;100392.78;1733946;81;21479;-68
2021/09/23 05:58:45;;;;;;;7.37;5.37;;;;;;;8.74;77.90;100396.28;1732982;81;21068;-68
2021/09/23 06:01:14;;;;;;;6.65;5.72;;;;;;;8.76;77.63;100400.84;1733823;81;21139;-68
2021/09/23 06:03:41;;;;;;;7.17;5.85;;;;;;;8.78;77.47;100396.85;1732310;81;22045;-68
2021/09/23 06:06:10;;;;;;;9.38;6.20;;;;;;;8.81;77.24;100400.88;1729647;81;21109;-69
2021/09/23 06:08:37;;;;;;;9.95;5.70;;;;;;;8.82;77.14;100401.98;1734901;81;21047;-68
2021/09/23 06:14:12;;;;;;;8.55;5.90;;;;;;;8.84;77.08;100403.05;1726765;81;21505;-68
2021/09/23 06:16:40;;;;;;;8.35;6.30;;;;;;;8.88;76.76;100404.16;1733089;81;21073;-69
2021/09/23 06:19:07;;;;;;;7.40;5.95;;;;;;;8.91;76.70;100401.00;1732666;81;21003;-69
2021/09/23 06:21:36;;;;;;;7.62;5.80;;;;;;;9.00;76.50;100408.83;1734748;81;21011;-68
2021/09/23 06:24:04;;;;;;;7.40;5.83;;;;;;;9.08;76.22;100403.58;1734993;81;21068;-67
2021/09/23 06:26:33;;;;;;;7.28;5.60;;;;;;;9.16;76.00;100402.61;1731114;81;21096;-68
2021/09/23 06:29:01;;;;;;;6.72;5.10;;;;;;;9.26;75.79;100397.91;1734960;81;21029;-67
2021/09/23 06:31:28;;;;;;;7.08;5.10;;;;;;;9.36;75.41;100391.88;1736092;81;20983;-68
2021/09/23 06:33:55;;;;;;;7.72;5.33;;;;;;;9.45;74.89;100397.03;1734424;81;21060;-68
2021/09/23 06:36:22;;;;;;;7.20;4.97;;;;;;;9.48;74.26;100395.19;1727490;81;21101;-70
2021/09/23 06:38:52;;;;;;;8.67;4.77;;;;;;;9.52;73.78;100392.28;1708644;82;21776;-69
2021/09/23 06:41:25;;;;;;;6.70;5.40;;;;;;;9.55;73.46;100394.45;1732612;81;21364;-69
2021/09/23 06:43:54;;;;;;;8.00;5.30;;;;;;;9.56;73.21;100396.05;1730047;81;21760;-69
2021/09/23 06:46:22;;;;;;;8.37;5.50;;;;;;;9.66;73.08;100393.19;1732809;81;21776;-68
2021/09/23 06:48:50;;;;;;;6.70;5.30;;;;;;;9.79;72.90;100394.09;1658364;83;21460;-67
2021/09/23 06:51:18;;;;;;;8.27;5.93;;;;;;;9.91;72.54;100395.27;1662490;84;21438;-67
2021/09/23 06:53:44;;;;;;;8.73;6.00;;;;;;;9.99;72.31;100388.90;1658226;84;21327;-68
2021/09/23 06:56:11;;;;;;;8.23;5.70;;;;;;;10.06;71.95;100391.34;1657844;84;21901;-68
2021/09/23 06:58:39;;;;;;;6.80;4.80;;;;;;;10.05;71.57;100395.08;1640206;86;21211;-68
2021/09/23 07:01:24;;;;;;;7.10;4.80;;;;;;;10.03;71.46;100395.86;1638965;86;21410;-68
2021/09/23 07:04:05;;;;;;;5.83;4.43;;;;;;;10.01;71.19;100398.80;1583348;86;21366;-68
2021/09/23 07:06:55;;;;;;;6.90;4.67;;;;;;;10.00;70.38;100401.70;1574996;89;21260;-68
2021/09/23 07:09:24;;;;;;;5.97;4.43;;;;;;;9.88;70.46;100396.57;1580774;89;21275;-68
2021/09/23 07:11:51;;;;;;;5.73;4.63;;;;;;;9.85;70.48;100401.08;1609658;86;21940;-69
2021/09/23 07:14:18;;;;;;;6.37;4.70;;;;;;;9.90;70.53;100400.30;1610887;86;21180;-68
2021/09/23 07:16:46;;;;;;;5.63;4.10;;;;;;;9.91;70.62;100393.92;1633795;86;21504;-69
2021/09/23 07:19:13;;;;;;;4.57;3.63;;;;;;;9.90;70.17;100396.30;1643790;86;21359;-69
2021/09/23 07:21:40;;;;;;;5.90;4.10;;;;;;;9.85;70.45;100389.87;1637028;86;21759;-69
2021/09/23 07:24:08;;;;;;;4.57;3.30;;;;;;;9.89;70.79;100394.70;1637047;86;22010;-68
2021/09/23 07:26:37;;;;;;;4.30;3.10;;;;;;;9.95;70.54;100391.81;1650770;86;21369;-70
2021/09/23 07:29:07;;;;;;;5.20;3.73;;;;;;;10.04;70.04;100382.80;1633380;86;21253;-69
2021/09/23 07:31:36;;;;;;;4.40;3.00;;;;;;;10.14;69.46;100387.41;1632407;86;22005;-68
2021/09/23 07:34:05;;;;;;;4.13;3.07;;;;;;;10.24;69.09;100390.13;1634316;86;21308;-68
2021/09/23 07:36:32;;;;;;;4.60;3.10;;;;;;;10.33;68.63;100381.91;1636393;86;21292;-69
2021/09/23 07:39:05;;;;;;;4.70;3.00;;;;;;;10.40;68.36;100388.35;1636690;86;21119;-69
2021/09/23 07:41:31;;;;;;;4.37;3.00;;;;;;;10.42;67.84;100395.05;1632715;86;21320;-68
2021/09/23 07:43:59;;;;;;;5.10;2.97;;;;;;;10.39;67.58;100386.75;1676191;84;22204;-68
2021/09/23 07:46:25;;;;;;;3.70;2.47;;;;;;;10.32;67.90;100384.32;1662599;84;21168;-68
2021/09/23 07:48:54;;;;;;;3.87;2.00;;;;;;;10.23;68.71;100386.66;1675575;83;21995;-67
2021/09/23 07:51:21;;;;;;;3.40;1.70;;;;;;;10.09;69.13;100386.83;1654338;85;21274;-68
2021/09/23 07:53:49;;;;;;;3.20;1.67;;;;;;;10.01;69.48;100392.13;1672031;83;22027;-68
2021/09/23 07:56:16;;;;;;;3.83;1.73;;;;;;;9.95;69.93;100395.81;1668333;84;21279;-68
2021/09/23 07:58:45;;;;;;;2.87;1.70;;;;;;;9.84;70.32;100396.28;1670644;84;21344;-69
2021/09/23 08:01:11;;;;;;;3.27;1.90;;;;;;;9.73;70.73;100387.91;1689366;84;21329;-68
2021/09/23 08:03:39;;;;;;;3.13;1.83;;;;;;;9.71;71.15;100390.58;1671623;84;21583;-69
2021/09/23 08:06:06;;;;;;;3.57;2.00;;;;;;;9.73;71.22;100387.11;1672041;84;21399;-70
2021/09/23 08:08:34;;;;;;;3.90;2.00;;;;;;;9.73;71.20;100390.58;1688816;83;22050;-69
2021/09/23 08:11:02;;;;;;;3.33;2.30;;;;;;;9.72;70.75;100382.84;1667566;85;21240;-68
2021/09/23 08:13:29;;;;;;;4.13;2.40;;;;;;;9.75;71.01;100387.67;1650831;85;21789;-68
2021/09/23 08:15:58;;;;;;;3.80;2.33;;;;;;;9.85;70.93;100381.88;1666569;84;21810;-69
2021/09/23 08:18:27;;;;;;;4.23;2.40;;;;;;;9.88;70.61;100387.77;1662831;84;21103;-69
2021/09/23 08:21:04;;;;;;;5.00;2.80;;;;;;;9.91;70.96;100380.05;1667030;84;21305;-69
2021/09/23 08:23:33;;;;;;;3.57;2.20;;;;;;;10.06;70.79;100372.13;1666948;86;21865;-69
2021/09/23 08:26:02;;;;;;;3.63;2.20;;;;;;;10.18;69.82;100379.15;1656635;84;21292;-67
2021/09/23 08:28:32;;;;;;;3.47;2.00;;;;;;;10.24;69.45;100374.91;1677587;84;21227;-68
2021/09/23 08:30:59;;;;;;;3.57;2.10;;;;;;;10.38;69.15;100383.28;1689355;84;21298;-69
2021/09/23 08:33:26;;;;;;;2.90;2.00;;;;;;;10.51;68.75;100364.66;1680355;84;21313;-68
2021/09/23 08:35:52;;;;;;;2.50;1.57;;;;;;;10.58;67.41;100361.74;1681723;84;21805;-68
2021/09/23 08:38:20;;;;;;;2.50;1.50;;;;;;;10.58;66.81;100363.08;1680151;84;21221;-69
2021/09/23 08:40:52;;;;;;;3.60;1.87;;;;;;;10.62;66.48;100364.16;1669801;84;21312;-69
2021/09/23 08:43:19;;;;;;;2.20;1.30;;;;;;;10.65;65.92;100367.11;1669321;84;21976;-69
2021/09/23 08:45:46;;;;;;;3.80;2.00;;;;;;;10.63;65.56;100365.75;1652086;85;21315;-68
2021/09/23 08:48:13;;;;;;;3.43;2.00;;;;;;;10.58;65.76;100369.76;1669238;84;21342;-68
2021/09/23 08:50:40;;;;;;;3.73;2.07;;;;;;;10.51;65.89;100374.00;1690310;84;21412;-68
2021/09/23 08:53:08;;;;;;;4.70;2.40;;;;;;;10.41;66.06;100373.42;1682802;84;21653;-69
2021/09/23 08:55:36;;;;;;;2.60;1.60;;;;;;;10.36;66.80;100380.06;1675981;84;21115;-69
2021/09/23 08:58:06;;;;;;;2.40;1.30;;;;;;;10.19;66.59;100369.53;1677593;84;21804;-69
2021/09/23 09:00:36;;;;;;;3.67;1.30;;;;;;;10.03;66.98;100371.30;1670315;84;21108;-68
2021/09/23 09:03:09;;;;;;;2.93;1.30;;;;;;;9.90;67.43;100389.09;1674853;84;21825;-68
2021/09/23 09:05:45;;;;;;;3.50;1.30;;;;;;;9.73;67.72;100380.44;1652602;84;21243;-68
2021/09/23 09:08:14;;;;;;;2.87;1.30;;;;;;;9.63;68.87;100377.97;1625879;85;21222;-69
2021/09/23 09:10:46;;;;;;;2.80;1.50;;;;;;;9.62;69.42;100385.70;1646236;85;21380;-69
2021/09/23 09:13:15;;;;;;;2.60;1.70;;;;;;;9.63;70.23;100379.30;1672428;84;21197;-68
2021/09/23 09:15:45;;;;;;;2.83;1.50;;;;;;;9.59;70.72;100379.54;1667038;84;21328;-68
2021/09/23 09:18:24;;;;;;;3.07;1.50;;;;;;;9.54;71.08;100382.19;1672397;85;21248;-68
2021/09/23 09:21:07;;;;;;;3.83;1.50;;;;;;;9.55;71.68;100377.65;1669628;84;21273;-68
2021/09/23 09:23:52;;;;;;;3.00;1.67;;;;;;;9.65;71.63;100380.93;1669535;84;21755;-69
2021/09/23 09:26:32;;;;;;;2.73;1.80;;;;;;;9.82;71.57;100376.25;1633780;84;21334;-69
2021/09/23 09:29:03;;;;;;;3.30;1.60;;;;;;;9.93;71.16;100373.11;1689071;84;21270;-68
2021/09/23 09:31:32;;;;;;;2.43;1.40;;;;;;;9.96;71.16;100375.27;1679994;84;21316;-68
2021/09/23 09:34:00;;;;;;;3.07;1.70;;;;;;;10.04;71.25;100366.80;1667255;84;21202;-68
2021/09/23 09:36:37;;;;;;;3.30;1.97;;;;;;;10.21;71.17;100367.95;1680646;84;21231;-68
2021/09/23 09:39:16;;;;;;;3.13;1.93;;;;;;;10.41;70.61;100368.08;1675148;84;21338;-68
2021/09/23 09:41:52;;;;;;;3.83;1.93;;;;;;;10.55;69.98;100363.86;1672294;84;21237;-68
2021/09/23 09:44:21;;;;;;;3.93;1.40;;;;;;;10.60;69.54;100364.97;1681091;84;21740;-68
2021/09/23 09:46:53;;;;;;;3.03;1.30;;;;;;;10.55;69.10;100365.73;1673426;84;21176;-68
2021/09/23 09:49:23;;;;;;;2.63;1.40;;;;;;;10.47;68.24;100372.39;1675999;84;21300;-68
2021/09/23 09:51:59;;;;;;;2.52;1.20;;;;;;;10.38;68.55;100380.61;1674725;84;21355;-68
2021/09/23 09:54:26;;;;;;;2.87;1.70;;;;;;;10.30;68.87;100372.58;1664447;84;21075;-69
2021/09/23 09:57:03;;;;;;;4.13;1.50;;;;;;;10.27;69.61;100370.42;1674287;84;21349;-71
2021/09/23 09:59:32;;;;;;;4.83;1.73;;;;;;;10.30;69.57;100377.12;1666655;84;21495;-69
2021/09/23 10:01:59;;;;;;;2.53;1.67;;;;;;;10.29;69.28;100374.95;1674940;84;21324;-69
2021/09/23 10:04:29;;;;;;;2.40;1.70;;;;;;;10.29;68.86;100366.15;1670785;84;21353;-67
2021/09/23 10:07:02;;;;;;;2.60;1.70;;;;;;;10.26;69.06;100368.80;1673784;84;21318;-68
2021/09/23 10:09:35;;;;;;;2.55;1.72;;;;;;;10.30;69.86;100372.58;1677683;83;21363;-69
2021/09/23 10:12:03;;;;;;;3.57;1.80;;;;;;;10.35;70.25;100375.80;1679495;84;21062;-68
2021/09/23 10:14:31;;;;;;;3.00;1.60;;;;;;;10.35;69.26;100375.80;1677892;84;21249;-69
2021/09/23 10:17:00;;;;;;;4.20;1.90;;;;;;;10.38;68.55;100380.61;1670384;84;21305;-67
2021/09/23 10:19:29;;;;;;;2.43;1.57;;;;;;;10.42;68.17;100372.89;1632878;84;21392;-68
2021/09/23 10:21:58;;;;;;;2.93;1.70;;;;;;;10.46;67.63;100376.13;1685439;84;21303;-68
2021/09/23 10:24:25;;;;;;;3.13;1.83;;;;;;;10.52;67.72;100368.39;1676367;84;21128;-69
2021/09/23 10:26:52;;;;;;;3.40;1.80;;;;;;;10.64;67.96;100363.38;1615240;87;21283;-69
2021/09/23 10:29:20;;;;;;;2.90;2.03;;;;;;;10.75;67.89;100363.13;1640730;84;21277;-69
2021/09/23 10:31:57;;;;;;;3.43;1.70;;;;;;;10.87;67.91;100368.79;1653661;85;21452;-68
2021/09/23 10:34:25;;;;;;;3.30;1.80;;;;;;;10.95;67.90;100370.94;1653512;84;21227;-68
2021/09/23 10:36:53;;;;;;;2.83;1.63;;;;;;;10.86;66.87;100370.66;1671466;84;21410;-68
2021/09/23 10:39:21;;;;;;;3.67;1.50;;;;;;;10.72;66.86;100368.99;1644919;85;21873;-68
2021/09/23 10:41:50;;;;;;;3.17;1.63;;;;;;;10.64;66.99;100359.37;1656690;84;21442;-69
2021/09/23 10:44:19;;;;;;;2.40;1.60;;;;;;;10.62;67.18;100365.49;1650403;85;21896;-68
2021/09/23 10:46:46;;;;;;;2.57;1.60;;;;;;;10.56;67.29;100369.50;1668857;84;21353;-68
2021/09/23 10:49:14;;;;;;;2.80;1.50;;;;;;;10.59;67.37;100368.68;1651174;84;21350;-69
2021/09/23 10:51:44;;;;;;;2.40;1.40;;;;;;;10.61;67.24;100367.36;1670340;85;21392;-69
2021/09/23 10:54:11;;;;;;;2.37;1.43;;;;;;;10.60;66.82;100366.30;1657788;84;21898;-69
2021/09/23 10:56:38;;;;;;;2.83;1.60;;;;;;;10.55;67.00;100365.73;1636010;84;21652;-68
2021/09/23 10:59:04;;;;;;;2.80;1.70;;;;;;;10.51;67.46;100374.80;1609507;84;21388;-68
2021/09/23 11:01:39;;;;;;;3.07;1.70;;;;;;;10.51;67.76;100373.47;1692793;84;21375;-69
2021/09/23 11:04:04;;;;;;;3.80;2.00;;;;;;;10.41;68.37;100375.30;1668259;84;21274;-69
2021/09/23 11:06:39;;;;;;;4.43;1.83;;;;;;;10.27;68.78;100378.44;1666345;84;21301;-69
2021/09/23 11:09:21;;;;;;;3.40;2.00;;;;;;;10.10;69.22;100383.91;1635128;85;21347;-69
2021/09/23 11:12:00;;;;;;;3.20;1.98;;;;;;;10.00;69.78;100382.52;1674637;84;21525;-67
2021/09/23 11:14:30;;;;;;;3.47;1.83;;;;;;;9.91;70.85;100376.05;1677023;84;21039;-68
2021/09/23 11:16:58;;;;;;;2.50;1.60;;;;;;;9.81;71.78;100378.12;1638560;85;21982;-68
2021/09/23 11:19:27;;;;;;;2.90;1.70;;;;;;;9.65;72.74;100376.93;1686207;84;21858;-69
2021/09/23 11:21:57;;;;;;;2.20;1.50;;;;;;;9.52;73.71;100382.95;1674479;84;21263;-67
2021/09/23 11:24:26;;;;;;;4.33;1.60;;;;;;;9.43;74.25;100386.34;1673665;84;21260;-67
2021/09/23 11:26:53;;;;;;;3.77;1.60;;;;;;;9.39;74.18;100386.04;1675463;84;21231;-68
2021/09/23 11:29:22;;;;;;;2.63;1.60;;;;;;;9.38;74.51;100388.44;1685388;84;21298;-69
2021/09/23 11:31:52;;;;;;;2.33;1.50;;;;;;;9.37;74.86;100388.14;1677126;84;21306;-67
2021/09/23 11:34:35;;;;;;;3.27;1.83;;;;;;;9.36;75.28;100382.01;1645528;85;21295;-68
2021/09/23 11:37:06;;;;;;;3.43;1.80;;;;;;;9.39;75.81;100384.70;1659786;84;21382;-68
2021/09/23 11:39:36;;;;;;;3.23;1.70;;;;;;;9.40;75.79;100386.30;1688447;84;21262;-69
2021/09/23 11:42:15;;;;;;;2.63;1.63;;;;;;;9.39;75.84;100380.70;1674652;84;21803;-68
2021/09/23 11:44:42;;;;;;;3.00;1.60;;;;;;;9.44;76.17;100378.07;1696228;84;21577;-67
2021/09/23 11:47:14;;;;;;;3.20;1.50;;;;;;;9.54;76.56;100376.02;1666920;84;21118;-68
2021/09/23 11:49:42;;;;;;;2.40;1.60;;;;;;;9.56;76.64;100373.91;1680275;83;21330;-68
2021/09/23 11:52:11;;;;;;;2.83;1.70;;;;;;;9.51;76.94;100376.02;1653229;84;21123;-68
2021/09/23 11:54:40;;;;;;;3.70;1.70;;;;;;;9.47;77.18;100373.56;1654796;85;21369;-69
2021/09/23 11:57:09;;;;;;;3.17;1.77;;;;;;;9.45;77.28;100371.70;1676259;84;21769;-68
2021/09/23 11:59:38;;;;;;;4.17;2.07;;;;;;;9.42;77.45;100372.73;1650961;84;21394;-67
2021/09/23 12:02:06;;;;;;;2.90;1.70;;;;;;;9.34;77.72;100368.66;1678688;84;21852;-69
2021/09/23 12:04:35;;;;;;;3.50;2.00;;;;;;;9.30;77.98;100363.03;1672371;84;21663;-68